Time;durP1;ratioP1;P1;durP2;ratioP2;P2;SDS_P1;SDS_P2;PMS_P1;PMS_P2;Temp;Humidity;BMP_temperature;BMP_pressure;BME280_temperature;BME280_humidity;BME280_pressure;Samples;Min_cycle;Max_cycle;Signal;HPM_P1;HPM_P2
2022/12/04 00:01:25;;;;;;;37.63;17.70;;;;;;;;;;5064131;28;20416;-43
2022/12/04 00:03:55;;;;;;;42.40;19.17;;;;;;;;;;5071439;28;20213;-41
2022/12/04 00:06:22;;;;;;;44.63;19.98;;;;;;;;;;5071555;28;20195;-43
2022/12/04 00:08:48;;;;;;;40.05;18.55;;;;;;;;;;5060163;28;20181;-42
2022/12/04 00:11:16;;;;;;;43.72;18.73;;;;;;;;;;5067019;28;20193;-41
2022/12/04 00:13:42;;;;;;;40.35;17.90;;;;;;;;;;5070725;28;20198;-41
2022/12/04 00:16:09;;;;;;;34.58;16.95;;;;;;;;;;5071532;28;20631;-41
2022/12/04 00:18:35;;;;;;;38.05;17.83;;;;;;;;;;5070828;28;20200;-41
2022/12/04 00:21:04;;;;;;;41.30;18.45;;;;;;;;;;5069632;28;20182;-42
2022/12/04 00:23:31;;;;;;;37.50;18.15;;;;;;;;;;5067935;28;20203;-42
2022/12/04 00:26:07;;;;;;;42.78;19.73;;;;;;;;;;5071406;28;20553;-42
2022/12/04 00:28:34;;;;;;;35.33;17.85;;;;;;;;;;5071353;28;20205;-41
2022/12/04 00:31:00;;;;;;;38.33;18.58;;;;;;;;;;5065818;28;20254;-41
2022/12/04 00:33:26;;;;;;;36.28;18.05;;;;;;;;;;5066949;28;20224;-41
2022/12/04 00:35:58;;;;;;;46.70;20.52;;;;;;;;;;5071235;28;20173;-41
2022/12/04 00:38:24;;;;;;;41.10;19.23;;;;;;;;;;5071298;28;20747;-41
2022/12/04 00:40:51;;;;;;;35.60;17.20;;;;;;;;;;5071206;28;20177;-41
2022/12/04 00:43:17;;;;;;;34.70;17.27;;;;;;;;;;5071026;28;20474;-42
2022/12/04 00:45:43;;;;;;;35.90;18.13;;;;;;;;;;5071866;28;20174;-43
2022/12/04 00:48:09;;;;;;;36.13;18.07;;;;;;;;;;5075065;28;20463;-41
2022/12/04 00:50:35;;;;;;;35.63;16.17;;;;;;;;;;5072108;28;20923;-41
2022/12/04 00:53:01;;;;;;;36.53;16.00;;;;;;;;;;5073244;28;20214;-41
2022/12/04 00:55:27;;;;;;;33.97;16.48;;;;;;;;;;5072556;28;20162;-41
2022/12/04 00:57:53;;;;;;;39.60;16.10;;;;;;;;;;5068986;28;20182;-41
2022/12/04 01:00:19;;;;;;;37.73;18.03;;;;;;;;;;5074823;28;20183;-41
2022/12/04 01:02:45;;;;;;;39.28;17.17;;;;;;;;;;5073531;28;20432;-41
2022/12/04 01:05:12;;;;;;;34.23;17.00;;;;;;;;;;5072126;28;20231;-42
2022/12/04 01:07:37;;;;;;;36.38;18.70;;;;;;;;;;5070444;28;20508;-41
2022/12/04 01:10:05;;;;;;;34.07;19.67;;;;;;;;;;5074580;28;20182;-41
2022/12/04 01:12:31;;;;;;;35.70;17.70;;;;;;;;;;5073713;28;20503;-42
2022/12/04 01:14:56;;;;;;;37.93;18.17;;;;;;;;;;5067819;28;20708;-42
2022/12/04 01:17:22;;;;;;;36.37;17.70;;;;;;;;;;5073568;28;20490;-42
2022/12/04 01:19:48;;;;;;;38.90;19.70;;;;;;;;;;5074460;28;20413;-41
2022/12/04 01:22:14;;;;;;;40.90;19.52;;;;;;;;;;5070229;28;20520;-41
2022/12/04 01:24:41;;;;;;;37.00;17.43;;;;;;;;;;5074491;28;21513;-42
2022/12/04 01:27:07;;;;;;;38.88;17.55;;;;;;;;;;5069686;28;20799;-42
2022/12/04 01:29:33;;;;;;;38.10;18.83;;;;;;;;;;5073675;28;20162;-42
2022/12/04 01:31:59;;;;;;;36.43;18.73;;;;;;;;;;5073821;28;20185;-42
2022/12/04 01:34:25;;;;;;;39.03;15.83;;;;;;;;;;5074095;28;20405;-43
2022/12/04 01:36:51;;;;;;;36.37;16.20;;;;;;;;;;5070540;28;20413;-42
2022/12/04 01:39:17;;;;;;;35.40;18.67;;;;;;;;;;5074022;28;20419;-43
2022/12/04 01:41:43;;;;;;;37.78;17.73;;;;;;;;;;5066715;28;20662;-42
2022/12/04 01:44:20;;;;;;;37.00;17.50;;;;;;;;;;5073615;28;20255;-41
2022/12/04 01:46:47;;;;;;;33.17;16.73;;;;;;;;;;5073949;28;20535;-41
2022/12/04 01:49:31;;;;;;;34.40;17.50;;;;;;;;;;5072954;28;20174;-41
2022/12/04 01:51:59;;;;;;;37.53;18.25;;;;;;;;;;5071545;28;20247;-41
2022/12/04 01:54:28;;;;;;;34.53;17.48;;;;;;;;;;5069664;28;20231;-41
2022/12/04 01:56:57;;;;;;;28.75;15.30;;;;;;;;;;5072956;28;20181;-41
2022/12/04 01:59:26;;;;;;;42.72;18.70;;;;;;;;;;5072677;28;20174;-42
2022/12/04 02:01:55;;;;;;;35.92;17.42;;;;;;;;;;5070218;28;20293;-42
2022/12/04 02:04:21;;;;;;;36.65;17.65;;;;;;;;;;5072042;28;20178;-43
2022/12/04 02:06:47;;;;;;;33.25;16.15;;;;;;;;;;5067278;28;20201;-42
2022/12/04 02:09:13;;;;;;;33.73;18.07;;;;;;;;;;5073050;28;20554;-42
2022/12/04 02:11:57;;;;;;;30.45;16.90;;;;;;;;;;5072662;28;20515;-42
2022/12/04 02:14:32;;;;;;;33.28;16.35;;;;;;;;;;5070486;28;20174;-41
2022/12/04 02:17:20;;;;;;;34.95;16.60;;;;;;;;;;5073837;28;20174;-42
2022/12/04 02:19:52;;;;;;;30.40;15.57;;;;;;;;;;5065302;28;20178;-42
2022/12/04 02:22:30;;;;;;;37.10;16.83;;;;;;;;;;5073248;28;20194;-43
2022/12/04 02:25:02;;;;;;;35.30;19.88;;;;;;;;;;5066698;28;20690;-42
2022/12/04 02:27:40;;;;;;;33.83;16.15;;;;;;;;;;5073247;28;20205;-42
2022/12/04 02:30:07;;;;;;;34.75;17.38;;;;;;;;;;5071295;28;20720;-43
2022/12/04 02:32:34;;;;;;;39.55;18.10;;;;;;;;;;5072854;28;20675;-42
2022/12/04 02:35:06;;;;;;;29.23;15.40;;;;;;;;;;5068021;28;20224;-42
2022/12/04 02:37:36;;;;;;;36.72;17.13;;;;;;;;;;5073147;28;20515;-42
2022/12/04 02:40:08;;;;;;;37.53;17.75;;;;;;;;;;5073200;28;20189;-42
2022/12/04 02:42:47;;;;;;;34.08;16.27;;;;;;;;;;5070827;28;20199;-43
2022/12/04 02:45:15;;;;;;;35.00;16.17;;;;;;;;;;5073025;28;20181;-42
2022/12/04 02:47:42;;;;;;;27.95;13.93;;;;;;;;;;5072933;28;20289;-42
2022/12/04 02:50:16;;;;;;;31.27;15.95;;;;;;;;;;5067736;28;20182;-43
2022/12/04 02:52:45;;;;;;;32.15;15.70;;;;;;;;;;5072518;28;20194;-43
2022/12/04 02:55:15;;;;;;;32.60;17.13;;;;;;;;;;5072836;28;20570;-43
2022/12/04 02:57:43;;;;;;;33.75;18.27;;;;;;;;;;5070774;28;20182;-42
2022/12/04 03:00:10;;;;;;;24.95;13.90;;;;;;;;;;5072657;28;20182;-42
2022/12/04 03:02:43;;;;;;;28.92;16.17;;;;;;;;;;5067229;28;20192;-42
2022/12/04 03:05:19;;;;;;;29.45;13.90;;;;;;;;;;5072681;28;20206;-42
2022/12/04 03:07:48;;;;;;;30.02;16.30;;;;;;;;;;5072545;28;20190;-42
2022/12/04 03:10:17;;;;;;;28.30;15.73;;;;;;;;;;5070343;28;20179;-42
2022/12/04 03:12:59;;;;;;;30.38;13.88;;;;;;;;;;5072168;28;20749;-41
2022/12/04 03:15:34;;;;;;;35.08;15.60;;;;;;;;;;5069637;28;20178;-42
2022/12/04 03:18:02;;;;;;;31.77;15.95;;;;;;;;;;5067365;28;20178;-42
2022/12/04 03:20:30;;;;;;;30.00;14.70;;;;;;;;;;5072092;28;20208;-42
2022/12/04 03:23:00;;;;;;;32.20;15.45;;;;;;;;;;5072156;28;20195;-43
2022/12/04 03:25:29;;;;;;;31.40;15.50;;;;;;;;;;5070435;28;20210;-42
2022/12/04 03:28:03;;;;;;;29.80;13.50;;;;;;;;;;5072020;28;20597;-42
2022/12/04 03:30:41;;;;;;;29.60;16.42;;;;;;;;;;5067012;28;20194;-43
2022/12/04 03:33:11;;;;;;;33.70;16.27;;;;;;;;;;5071842;28;20205;-42
2022/12/04 03:35:42;;;;;;;26.67;14.10;;;;;;;;;;5071977;28;20173;-41
2022/12/04 03:38:18;;;;;;;29.02;15.25;;;;;;;;;;5072117;28;20174;-43
2022/12/04 03:40:49;;;;;;;32.63;16.27;;;;;;;;;;5071691;28;20174;-42
2022/12/04 03:43:18;;;;;;;26.05;15.52;;;;;;;;;;5068600;28;20675;-42
2022/12/04 03:45:46;;;;;;;28.50;13.10;;;;;;;;;;5072160;28;20201;-42
2022/12/04 03:48:15;;;;;;;28.48;15.25;;;;;;;;;;5065432;28;20194;-42
2022/12/04 03:50:45;;;;;;;29.02;15.23;;;;;;;;;;5071652;28;20593;-42
2022/12/04 03:53:25;;;;;;;22.55;13.80;;;;;;;;;;5071750;28;20884;-42
2022/12/04 03:55:59;;;;;;;30.98;15.40;;;;;;;;;;5060973;28;20181;-43
2022/12/04 03:58:28;;;;;;;28.75;15.63;;;;;;;;;;5071735;28;20720;-42
2022/12/04 04:00:55;;;;;;;29.38;14.30;;;;;;;;;;5068513;28;20186;-41
2022/12/04 04:03:27;;;;;;;26.00;14.60;;;;;;;;;;5068307;28;20664;-43
2022/12/04 04:05:55;;;;;;;19.80;11.35;;;;;;;;;;5071822;28;20650;-42
2022/12/04 04:08:26;;;;;;;30.60;13.65;;;;;;;;;;5071529;28;20197;-42
2022/12/04 04:10:53;;;;;;;28.17;13.73;;;;;;;;;;5068009;28;20654;-41
2022/12/04 04:24:49;;;;;;;23.40;13.27;;;;;;;;;;5071430;28;20185;-42
2022/12/04 04:27:15;;;;;;;21.38;12.30;;;;;;;;;;5065322;28;20210;-42
2022/12/04 04:29:42;;;;;;;30.60;12.93;;;;;;;;;;5071581;28;20703;-42
2022/12/04 04:32:18;;;;;;;34.95;15.23;;;;;;;;;;5064822;28;20437;-42
2022/12/04 04:35:05;;;;;;;28.48;14.50;;;;;;;;;;5069705;28;20182;-42
2022/12/04 04:37:39;;;;;;;25.90;14.50;;;;;;;;;;5071280;28;20244;-42
2022/12/04 04:40:28;;;;;;;28.52;14.60;;;;;;;;;;5068753;28;20274;-42
2022/12/04 04:42:53;;;;;;;28.50;15.30;;;;;;;;;;5064000;28;20569;-42
2022/12/04 04:45:38;;;;;;;26.77;15.00;;;;;;;;;;5071379;28;20163;-42
2022/12/04 04:48:23;;;;;;;25.60;14.00;;;;;;;;;;5065449;28;20444;-42
2022/12/04 04:50:49;;;;;;;30.35;15.57;;;;;;;;;;5070917;28;20189;-43
2022/12/04 04:53:18;;;;;;;29.35;13.95;;;;;;;;;;5071174;28;20251;-42
2022/12/04 04:55:44;;;;;;;28.27;15.10;;;;;;;;;;5066465;28;20174;-42
2022/12/04 04:58:12;;;;;;;28.52;14.65;;;;;;;;;;5071194;28;20189;-42
2022/12/04 05:00:38;;;;;;;26.80;14.25;;;;;;;;;;5062918;28;20548;-42
2022/12/04 05:03:04;;;;;;;28.23;15.18;;;;;;;;;;5069497;28;20209;-42
2022/12/04 05:05:30;;;;;;;22.00;13.23;;;;;;;;;;5071113;28;20170;-41
2022/12/04 05:07:56;;;;;;;24.67;14.23;;;;;;;;;;5069767;28;20734;-43
2022/12/04 05:10:22;;;;;;;28.77;17.33;;;;;;;;;;5067619;28;20894;-43
2022/12/04 05:12:48;;;;;;;29.80;14.17;;;;;;;;;;5064445;28;20190;-42
2022/12/04 05:15:14;;;;;;;29.03;14.77;;;;;;;;;;5071017;28;20907;-42
2022/12/04 05:17:40;;;;;;;29.83;13.52;;;;;;;;;;5071061;28;20798;-42
2022/12/04 05:20:06;;;;;;;28.40;13.87;;;;;;;;;;5068005;28;20185;-42
2022/12/04 05:22:33;;;;;;;25.95;14.32;;;;;;;;;;5070646;28;20425;-42
2022/12/04 05:24:59;;;;;;;23.17;13.23;;;;;;;;;;5067667;28;20183;-42
2022/12/04 05:27:26;;;;;;;27.05;13.48;;;;;;;;;;5067925;28;20276;-43
2022/12/04 05:29:53;;;;;;;34.05;14.45;;;;;;;;;;5071099;28;20198;-43
2022/12/04 05:32:19;;;;;;;27.50;14.05;;;;;;;;;;5070485;28;20197;-42
2022/12/04 05:34:47;;;;;;;22.40;13.17;;;;;;;;;;5071491;28;20258;-42
2022/12/04 05:37:12;;;;;;;29.13;12.85;;;;;;;;;;5074351;28;20499;-42
2022/12/04 05:39:38;;;;;;;28.33;14.57;;;;;;;;;;5068099;28;20217;-43
2022/12/04 05:42:04;;;;;;;22.33;13.33;;;;;;;;;;5073794;28;20432;-42
2022/12/04 05:44:30;;;;;;;23.10;11.10;;;;;;;;;;5074266;28;20409;-42
2022/12/04 05:46:56;;;;;;;24.40;12.27;;;;;;;;;;5074203;28;20954;-42
2022/12/04 05:49:22;;;;;;;19.90;12.05;;;;;;;;;;5074612;28;20426;-42
2022/12/04 05:51:49;;;;;;;23.80;14.13;;;;;;;;;;5073698;28;20186;-42
2022/12/04 05:54:15;;;;;;;17.52;11.93;;;;;;;;;;5071472;28;20205;-42
2022/12/04 05:56:41;;;;;;;21.77;12.85;;;;;;;;;;5073895;28;20209;-41
2022/12/04 05:59:07;;;;;;;17.20;11.20;;;;;;;;;;5073897;28;20171;-42
2022/12/04 06:01:33;;;;;;;18.13;11.33;;;;;;;;;;5073567;28;20174;-42
2022/12/04 06:03:59;;;;;;;19.43;11.57;;;;;;;;;;5070125;28;20488;-41
2022/12/04 06:06:25;;;;;;;19.50;11.60;;;;;;;;;;5073674;28;20415;-42
2022/12/04 06:08:52;;;;;;;18.50;11.38;;;;;;;;;;5073747;28;20984;-41
2022/12/04 06:11:20;;;;;;;19.48;13.10;;;;;;;;;;5073269;28;20182;-42
2022/12/04 06:13:46;;;;;;;19.50;11.63;;;;;;;;;;5063548;28;20166;-42
2022/12/04 06:16:16;;;;;;;17.55;11.85;;;;;;;;;;5073651;28;20192;-42
2022/12/04 06:18:42;;;;;;;18.63;12.10;;;;;;;;;;5073755;28;20205;-42
2022/12/04 06:21:09;;;;;;;19.40;12.15;;;;;;;;;;5068109;28;20550;-42
2022/12/04 06:23:35;;;;;;;21.20;12.30;;;;;;;;;;5066608;28;20260;-42
2022/12/04 06:26:02;;;;;;;23.83;13.43;;;;;;;;;;5073275;28;20558;-42
2022/12/04 06:28:28;;;;;;;18.48;12.13;;;;;;;;;;5073252;28;20248;-42
2022/12/04 06:30:54;;;;;;;20.15;12.10;;;;;;;;;;5069609;28;20193;-42
2022/12/04 06:33:20;;;;;;;19.93;11.23;;;;;;;;;;5073300;28;20229;-43
2022/12/04 06:36:02;;;;;;;19.37;11.10;;;;;;;;;;5070838;28;20459;-42
2022/12/04 06:38:29;;;;;;;20.35;12.15;;;;;;;;;;5070693;28;20487;-42
2022/12/04 06:40:55;;;;;;;15.07;9.82;;;;;;;;;;5072892;28;20170;-43
2022/12/04 06:43:21;;;;;;;19.42;10.52;;;;;;;;;;5072635;28;20200;-44
2022/12/04 06:45:47;;;;;;;19.23;11.52;;;;;;;;;;5073066;28;20182;-42
2022/12/04 06:48:13;;;;;;;19.47;12.00;;;;;;;;;;5067965;28;20681;-41
2022/12/04 06:50:39;;;;;;;19.10;11.40;;;;;;;;;;5072794;28;20408;-40
2022/12/04 06:53:05;;;;;;;17.60;10.25;;;;;;;;;;5066655;28;20809;-41
2022/12/04 06:55:31;;;;;;;22.80;12.17;;;;;;;;;;5070756;28;20623;-43
2022/12/04 06:57:57;;;;;;;16.63;10.80;;;;;;;;;;5072897;28;21051;-41
2022/12/04 07:00:23;;;;;;;17.97;10.57;;;;;;;;;;5068132;28;20784;-42
2022/12/04 07:02:49;;;;;;;16.00;11.20;;;;;;;;;;5072420;28;20770;-42
2022/12/04 07:05:15;;;;;;;17.03;10.73;;;;;;;;;;5072621;28;20492;-42
2022/12/04 07:07:40;;;;;;;15.93;10.77;;;;;;;;;;5064954;28;20475;-42
2022/12/04 07:10:07;;;;;;;17.13;10.43;;;;;;;;;;5071379;28;20408;-42
2022/12/04 07:12:33;;;;;;;19.63;11.00;;;;;;;;;;5072200;28;20814;-41
2022/12/04 07:14:59;;;;;;;18.70;11.57;;;;;;;;;;5068156;28;20177;-41
2022/12/04 07:17:24;;;;;;;15.50;11.00;;;;;;;;;;5072283;28;20412;-42
2022/12/04 07:19:50;;;;;;;20.80;12.00;;;;;;;;;;5069004;28;20421;-42
2022/12/04 07:22:16;;;;;;;19.87;11.50;;;;;;;;;;5067612;28;20475;-41
2022/12/04 07:24:42;;;;;;;21.67;12.70;;;;;;;;;;5071801;28;20416;-42
2022/12/04 07:27:08;;;;;;;19.97;12.40;;;;;;;;;;5072165;28;20456;-43
2022/12/04 07:29:34;;;;;;;22.40;12.00;;;;;;;;;;5067832;28;20935;-43
2022/12/04 07:32:00;;;;;;;18.53;11.93;;;;;;;;;;5071783;28;20429;-42
2022/12/04 07:34:26;;;;;;;18.53;12.03;;;;;;;;;;5064455;28;20410;-42
2022/12/04 07:36:52;;;;;;;19.27;12.20;;;;;;;;;;5071161;28;20412;-42
2022/12/04 07:39:18;;;;;;;19.43;11.67;;;;;;;;;;5072074;28;20485;-42
2022/12/04 07:41:44;;;;;;;19.40;11.60;;;;;;;;;;5071715;28;20416;-42
2022/12/04 07:44:10;;;;;;;15.30;10.17;;;;;;;;;;5067693;28;20405;-41
2022/12/04 07:46:36;;;;;;;18.30;11.23;;;;;;;;;;5069020;28;20421;-42
2022/12/04 07:49:02;;;;;;;19.57;12.70;;;;;;;;;;5074021;28;20764;-44
2022/12/04 07:51:28;;;;;;;20.47;11.63;;;;;;;;;;5073930;28;20403;-42
2022/12/04 07:53:56;;;;;;;18.25;11.98;;;;;;;;;;5069186;28;20413;-43
2022/12/04 07:56:22;;;;;;;22.23;12.18;;;;;;;;;;5071133;28;20162;-43
2022/12/04 07:58:48;;;;;;;17.70;12.77;;;;;;;;;;5070076;28;20175;-41
2022/12/04 08:01:16;;;;;;;19.10;13.03;;;;;;;;;;5066664;28;20232;-42
2022/12/04 08:03:42;;;;;;;20.67;12.02;;;;;;;;;;5071942;28;20530;-42
2022/12/04 08:06:08;;;;;;;19.90;11.30;;;;;;;;;;5070289;28;20658;-41
2022/12/04 08:08:34;;;;;;;19.83;11.52;;;;;;;;;;5069593;28;20212;-44
2022/12/04 08:11:01;;;;;;;18.95;12.30;;;;;;;;;;5067255;28;20658;-42
2022/12/04 08:13:27;;;;;;;19.52;12.63;;;;;;;;;;5070885;28;20229;-42
2022/12/04 08:15:53;;;;;;;22.57;12.57;;;;;;;;;;5072118;28;20201;-43
2022/12/04 08:18:19;;;;;;;20.60;12.13;;;;;;;;;;5071523;28;20423;-42
2022/12/04 08:20:45;;;;;;;18.37;10.67;;;;;;;;;;5068040;28;20443;-42
2022/12/04 08:23:11;;;;;;;21.23;12.57;;;;;;;;;;5071352;28;20439;-42
2022/12/04 08:25:40;;;;;;;21.70;13.10;;;;;;;;;;5069582;28;20425;-42
2022/12/04 08:28:06;;;;;;;24.88;13.90;;;;;;;;;;5068795;28;20445;-42
2022/12/04 08:30:32;;;;;;;21.52;12.60;;;;;;;;;;5062955;28;20238;-42
2022/12/04 08:32:58;;;;;;;17.95;11.55;;;;;;;;;;5063790;28;20198;-42
2022/12/04 08:35:24;;;;;;;21.30;12.80;;;;;;;;;;5073389;28;20201;-42
2022/12/04 08:37:50;;;;;;;21.97;13.37;;;;;;;;;;5079276;28;20461;-42
2022/12/04 08:40:16;;;;;;;20.57;12.47;;;;;;;;;;5065639;28;20766;-42
2022/12/04 08:42:42;;;;;;;19.40;11.37;;;;;;;;;;5071012;28;20502;-42
2022/12/04 08:45:08;;;;;;;18.80;13.13;;;;;;;;;;5071692;28;20410;-42
2022/12/04 08:47:35;;;;;;;19.20;12.80;;;;;;;;;;5070512;28;20464;-42
2022/12/04 08:50:01;;;;;;;25.02;13.30;;;;;;;;;;5058243;28;20178;-42
2022/12/04 08:52:27;;;;;;;23.15;13.90;;;;;;;;;;5068353;28;20186;-42
2022/12/04 08:54:53;;;;;;;25.73;13.60;;;;;;;;;;5071267;28;20510;-43
2022/12/04 08:57:19;;;;;;;18.43;11.73;;;;;;;;;;5061993;28;20413;-43
2022/12/04 08:59:45;;;;;;;20.00;10.97;;;;;;;;;;5069384;28;20412;-42
2022/12/04 09:02:12;;;;;;;23.55;12.45;;;;;;;;;;5070488;28;20499;-43
2022/12/04 09:04:38;;;;;;;18.63;11.32;;;;;;;;;;5071027;28;20170;-42
2022/12/04 09:07:04;;;;;;;22.17;12.57;;;;;;;;;;5067773;28;20664;-42
2022/12/04 09:09:30;;;;;;;20.23;12.50;;;;;;;;;;5068844;28;20181;-43
2022/12/04 09:11:56;;;;;;;22.40;12.07;;;;;;;;;;5074451;28;20883;-42
2022/12/04 09:14:24;;;;;;;23.47;13.30;;;;;;;;;;5074575;28;20176;-43
2022/12/04 09:16:51;;;;;;;22.05;12.88;;;;;;;;;;5072007;28;20403;-42
2022/12/04 09:19:17;;;;;;;20.17;11.80;;;;;;;;;;5074758;28;20171;-42
2022/12/04 09:21:43;;;;;;;21.37;12.53;;;;;;;;;;5074512;28;20186;-42
2022/12/04 09:24:09;;;;;;;25.40;14.77;;;;;;;;;;5074713;28;20401;-43
2022/12/04 09:26:35;;;;;;;21.33;12.93;;;;;;;;;;5074372;28;20936;-43
2022/12/04 09:29:02;;;;;;;24.20;14.17;;;;;;;;;;5074517;28;20876;-42
2022/12/04 09:31:28;;;;;;;23.83;14.38;;;;;;;;;;5072191;28;20792;-42
2022/12/04 09:33:54;;;;;;;23.92;13.68;;;;;;;;;;5074406;28;20176;-42
2022/12/04 09:36:20;;;;;;;24.07;15.57;;;;;;;;;;5074379;28;20179;-42
2022/12/04 09:38:48;;;;;;;24.70;14.27;;;;;;;;;;5072219;28;20400;-42
2022/12/04 09:41:20;;;;;;;26.13;12.43;;;;;;;;;;5069717;28;20228;-42
2022/12/04 09:43:56;;;;;;;20.35;12.32;;;;;;;;;;5074473;28;20177;-42
2022/12/04 09:46:26;;;;;;;22.58;13.20;;;;;;;;;;5072434;28;20174;-42
2022/12/04 09:48:53;;;;;;;21.23;12.65;;;;;;;;;;5073500;28;20215;-42
2022/12/04 09:51:20;;;;;;;21.88;14.02;;;;;;;;;;5073852;28;20253;-42
2022/12/04 09:53:52;;;;;;;26.90;14.40;;;;;;;;;;5062787;28;20687;-42
2022/12/04 09:56:19;;;;;;;23.45;14.20;;;;;;;;;;5074043;28;20187;-42
2022/12/04 09:58:45;;;;;;;25.17;12.93;;;;;;;;;;5073865;28;20190;-42
2022/12/04 10:01:22;;;;;;;22.53;12.90;;;;;;;;;;5073777;28;20177;-42
2022/12/04 10:03:48;;;;;;;25.83;15.30;;;;;;;;;;5065860;28;20397;-42
2022/12/04 10:06:25;;;;;;;20.15;12.35;;;;;;;;;;5072532;28;20543;-42
2022/12/04 10:09:02;;;;;;;22.85;13.15;;;;;;;;;;5072638;28;20198;-43
2022/12/04 10:11:44;;;;;;;24.98;14.25;;;;;;;;;;5065117;28;20224;-43
2022/12/04 10:14:28;;;;;;;28.35;14.27;;;;;;;;;;5072173;28;20178;-43
2022/12/04 10:17:10;;;;;;;22.42;13.95;;;;;;;;;;5069603;28;20174;-42
2022/12/04 10:19:48;;;;;;;25.15;14.82;;;;;;;;;;5070609;28;20178;-43
2022/12/04 10:22:14;;;;;;;21.67;13.68;;;;;;;;;;5066988;28;20197;-42
2022/12/04 10:24:43;;;;;;;25.30;14.87;;;;;;;;;;5072407;28;20179;-43
2022/12/04 10:27:32;;;;;;;25.95;15.57;;;;;;;;;;5073165;28;20452;-43
2022/12/04 10:30:01;;;;;;;23.20;12.88;;;;;;;;;;5062984;28;20198;-43
2022/12/04 10:32:34;;;;;;;21.17;13.18;;;;;;;;;;5072924;28;20182;-43
2022/12/04 10:35:15;;;;;;;27.27;14.05;;;;;;;;;;5068857;28;20647;-43
2022/12/04 10:37:42;;;;;;;20.88;12.95;;;;;;;;;;5065878;28;20545;-43
2022/12/04 10:40:19;;;;;;;23.08;13.48;;;;;;;;;;5072957;28;20177;-43
2022/12/04 10:42:57;;;;;;;24.33;13.95;;;;;;;;;;5072754;28;20201;-43
2022/12/04 10:45:23;;;;;;;25.38;12.15;;;;;;;;;;5072903;28;20242;-42
2022/12/04 10:47:50;;;;;;;21.58;12.07;;;;;;;;;;5067026;28;20199;-44
2022/12/04 10:50:17;;;;;;;20.35;12.35;;;;;;;;;;5072747;28;20177;-42
2022/12/04 10:52:43;;;;;;;24.20;14.15;;;;;;;;;;5072715;28;20605;-43
2022/12/04 10:55:38;;;;;;;23.45;13.50;;;;;;;;;;5076561;28;20177;-41
2022/12/04 10:58:15;;;;;;;24.55;15.57;;;;;;;;;;5067121;28;20710;-41
2022/12/04 11:00:41;;;;;;;22.52;13.73;;;;;;;;;;5072364;28;20170;-41
2022/12/04 11:03:21;;;;;;;25.90;13.90;;;;;;;;;;5067230;28;20192;-41
2022/12/04 11:05:55;;;;;;;26.45;14.25;;;;;;;;;;5072072;28;20412;-41
2022/12/04 11:08:24;;;;;;;26.15;14.52;;;;;;;;;;5072491;28;20190;-41
2022/12/04 11:10:57;;;;;;;23.67;14.65;;;;;;;;;;5072119;28;20190;-41
2022/12/04 11:13:23;;;;;;;25.08;15.25;;;;;;;;;;5068297;28;20182;-41
2022/12/04 11:15:50;;;;;;;22.77;13.52;;;;;;;;;;5072358;28;20166;-41
2022/12/04 11:18:18;;;;;;;23.20;13.05;;;;;;;;;;5065726;28;20175;-41
2022/12/04 11:20:50;;;;;;;27.67;14.50;;;;;;;;;;5071990;28;20608;-41
2022/12/04 11:23:16;;;;;;;30.25;15.00;;;;;;;;;;5072193;28;20272;-42
2022/12/04 11:25:50;;;;;;;25.85;14.57;;;;;;;;;;5072125;28;20226;-41
2022/12/04 11:28:17;;;;;;;27.02;15.48;;;;;;;;;;5068168;28;20224;-42
2022/12/04 11:30:47;;;;;;;27.95;15.70;;;;;;;;;;5070945;28;20178;-42
2022/12/04 11:33:19;;;;;;;25.42;15.05;;;;;;;;;;5072098;28;20678;-41
2022/12/04 11:35:51;;;;;;;28.73;16.60;;;;;;;;;;5071755;28;20181;-41
2022/12/04 11:38:18;;;;;;;27.70;15.18;;;;;;;;;;5069569;28;20647;-41
2022/12/04 11:40:52;;;;;;;24.50;14.07;;;;;;;;;;5071563;28;20188;-41
2022/12/04 11:43:18;;;;;;;25.92;13.90;;;;;;;;;;5065343;28;20279;-41
2022/12/04 11:46:14;;;;;;;23.20;13.77;;;;;;;;;;5062411;28;20268;-41
2022/12/04 11:48:44;;;;;;;31.38;14.98;;;;;;;;;;5061262;28;20857;-42
2022/12/04 11:51:10;;;;;;;27.83;13.90;;;;;;;;;;5071622;28;20177;-41
2022/12/04 11:53:59;;;;;;;28.10;14.50;;;;;;;;;;5071880;28;20190;-42
2022/12/04 11:56:25;;;;;;;23.50;12.27;;;;;;;;;;5068895;28;20401;-41
2022/12/04 11:58:59;;;;;;;23.07;12.60;;;;;;;;;;5071606;28;20173;-41
2022/12/04 12:01:25;;;;;;;23.08;13.02;;;;;;;;;;5064102;28;20437;-42
2022/12/04 12:04:06;;;;;;;23.67;13.20;;;;;;;;;;5062936;28;20208;-41
2022/12/04 12:06:39;;;;;;;26.27;12.55;;;;;;;;;;5071626;28;20458;-42
2022/12/04 12:09:14;;;;;;;25.55;13.75;;;;;;;;;;5067577;28;20301;-42
2022/12/04 12:11:43;;;;;;;28.00;13.57;;;;;;;;;;5071219;28;20203;-42
2022/12/04 12:14:18;;;;;;;19.75;12.88;;;;;;;;;;5068566;28;20187;-42
2022/12/04 12:16:52;;;;;;;24.98;12.40;;;;;;;;;;5071583;28;20169;-41
2022/12/04 12:19:18;;;;;;;23.33;14.38;;;;;;;;;;5071416;28;20178;-42
2022/12/04 12:21:43;;;;;;;24.00;13.43;;;;;;;;;;5071097;28;20564;-41
2022/12/04 12:24:25;;;;;;;28.40;14.00;;;;;;;;;;5071566;28;20413;-41
2022/12/04 12:27:09;;;;;;;21.20;13.15;;;;;;;;;;5069189;28;20802;-41
2022/12/04 12:29:38;;;;;;;30.02;14.25;;;;;;;;;;5071399;28;20682;-41
2022/12/04 12:32:31;;;;;;;26.75;12.85;;;;;;;;;;5070869;28;20205;-42
2022/12/04 12:34:57;;;;;;;18.05;12.70;;;;;;;;;;5048757;28;20182;-41
2022/12/04 12:37:50;;;;;;;22.70;13.70;;;;;;;;;;5071555;28;20250;-41
2022/12/04 12:40:21;;;;;;;24.15;13.55;;;;;;;;;;5060574;28;20213;-41
2022/12/04 12:43:10;;;;;;;27.58;16.15;;;;;;;;;;5065323;28;20690;-41
2022/12/04 12:45:42;;;;;;;22.38;13.38;;;;;;;;;;5075310;28;20170;-41
2022/12/04 12:48:18;;;;;;;32.67;20.02;;;;;;;;;;5075183;28;20221;-41
2022/12/04 12:50:47;;;;;;;20.25;12.90;;;;;;;;;;5074930;28;20174;-42
2022/12/04 12:53:16;;;;;;;19.30;11.80;;;;;;;;;;5070838;28;20193;-41
2022/12/04 12:55:44;;;;;;;23.73;13.32;;;;;;;;;;5073707;28;20163;-41
2022/12/04 12:58:13;;;;;;;23.63;12.15;;;;;;;;;;5074935;28;20787;-42
2022/12/04 13:00:49;;;;;;;20.23;12.93;;;;;;;;;;5073904;28;20677;-41
2022/12/04 13:03:27;;;;;;;23.23;13.38;;;;;;;;;;5060038;28;20208;-41
2022/12/04 13:05:55;;;;;;;23.27;12.68;;;;;;;;;;5074738;28;20580;-41
2022/12/04 13:08:24;;;;;;;21.50;13.27;;;;;;;;;;5074538;28;20201;-41
2022/12/04 13:11:03;;;;;;;23.92;13.73;;;;;;;;;;5065827;28;20241;-41
2022/12/04 13:13:31;;;;;;;21.08;13.27;;;;;;;;;;5074677;28;20295;-41
2022/12/04 13:16:02;;;;;;;23.50;13.93;;;;;;;;;;5074752;28;20181;-41
2022/12/04 13:18:33;;;;;;;20.10;13.25;;;;;;;;;;5075152;28;20197;-42
2022/12/04 13:21:01;;;;;;;23.00;13.93;;;;;;;;;;5074416;28;20189;-41
2022/12/04 13:23:40;;;;;;;21.50;13.70;;;;;;;;;;5074261;28;20186;-41
2022/12/04 13:26:06;;;;;;;20.60;13.57;;;;;;;;;;5073922;28;20222;-41
2022/12/04 13:28:41;;;;;;;23.90;14.03;;;;;;;;;;5055831;28;20289;-41
2022/12/04 13:31:07;;;;;;;20.17;12.73;;;;;;;;;;5069152;28;21229;-41
2022/12/04 13:33:38;;;;;;;21.70;14.03;;;;;;;;;;5060742;28;20191;-41
2022/12/04 13:36:26;;;;;;;22.27;13.65;;;;;;;;;;5057353;28;20515;-41
2022/12/04 13:38:52;;;;;;;15.88;11.50;;;;;;;;;;5054454;28;20211;-41
2022/12/04 13:41:19;;;;;;;20.13;13.67;;;;;;;;;;5069693;28;20651;-41
2022/12/04 13:43:47;;;;;;;16.50;11.98;;;;;;;;;;5074367;28;20553;-41
2022/12/04 13:46:25;;;;;;;22.52;12.95;;;;;;;;;;5074278;28;20710;-41
2022/12/04 13:48:51;;;;;;;19.15;12.50;;;;;;;;;;5074007;28;20194;-41
2022/12/04 13:51:19;;;;;;;19.23;12.68;;;;;;;;;;5073858;28;20197;-41
2022/12/04 13:53:45;;;;;;;19.08;11.88;;;;;;;;;;5072877;28;20274;-40
2022/12/04 13:56:25;;;;;;;20.00;13.20;;;;;;;;;;5072365;28;20171;-41
2022/12/04 13:59:01;;;;;;;20.80;13.60;;;;;;;;;;5059731;28;20656;-41
2022/12/04 14:01:29;;;;;;;20.85;13.60;;;;;;;;;;5069390;28;20178;-41
2022/12/04 14:03:58;;;;;;;18.98;12.25;;;;;;;;;;5074086;28;20178;-41
2022/12/04 14:06:26;;;;;;;20.55;12.40;;;;;;;;;;5073717;28;20186;-41
2022/12/04 14:09:00;;;;;;;19.95;13.35;;;;;;;;;;5073742;28;20839;-41
2022/12/04 14:11:26;;;;;;;21.30;12.75;;;;;;;;;;5070848;28;20201;-40
2022/12/04 14:13:54;;;;;;;22.42;12.73;;;;;;;;;;5053742;28;20165;-41
2022/12/04 14:16:21;;;;;;;19.92;12.50;;;;;;;;;;5068109;28;20178;-40
2022/12/04 14:18:48;;;;;;;19.33;12.52;;;;;;;;;;5056769;28;20179;-42
2022/12/04 14:21:14;;;;;;;30.08;17.10;;;;;;;;;;5066330;28;20227;-41
2022/12/04 14:23:41;;;;;;;22.27;13.87;;;;;;;;;;5062509;28;20202;-40
2022/12/04 14:26:19;;;;;;;19.85;13.55;;;;;;;;;;5056999;28;20409;-40
2022/12/04 14:28:45;;;;;;;18.05;12.88;;;;;;;;;;5064211;28;20202;-40
2022/12/04 14:31:23;;;;;;;21.33;12.30;;;;;;;;;;5072992;28;20171;-40
2022/12/04 14:33:51;;;;;;;19.60;13.10;;;;;;;;;;5071036;28;20178;-40
2022/12/04 14:36:20;;;;;;;19.95;12.05;;;;;;;;;;5069435;28;20171;-41
2022/12/04 14:38:47;;;;;;;20.58;12.65;;;;;;;;;;5073254;28;20169;-40
2022/12/04 14:41:13;;;;;;;19.02;12.90;;;;;;;;;;5071181;28;20171;-41